Ashby, Minnesota
Current Conditions -  °F | °C
As of 11:14 AM on Thursday 18 Dec 2014 (Local Time) from KY63 Reporting Station
Overcast Overcast  
Wind Chill:   Ceiling: 7000
Heat Index: 14°   Visibility: 7mi
Dew Point: 12°   Wind: 13mph
Humidity: 92%   Direction: 160°SSE
Pressure: 30.25"   Gusts: NA
Location:  46.09°N, 95.82°W
Report Text: KY63 181714Z AUTO 16011KT 7SM OVC070 M10/M11 A3025 RMK AO2 T11001111
Loading
Personal Weather Stations






























Interactive Weather Map New forecast layout! Learn more

10-Day Weather Forecast

Advertisements
Track Severe Weather on mobile